Braham, MN (55006)

9:29 AM CDT on April 19, 2015 (GMT -0500)
Torgs on Belle Isle | | Change Station
CLOSE
Current Station
Personal Weather Station
Location: Rush City, MN
Elevation: 932 ft
Nearby Weather Stations

Elev 932 ft 45.70 °N, 93.06 °W | Updated 14 seconds ago

Overcast
Overcast
45.0 °F
Feels Like 41 °F
N
8.0
Wind Variable Wind from SE
Gusts 16.0 mph

Today
High -- | Low -- °F
--% Chance of Precip.
Yesterday
High -- | Low -- °F
Precip. -- in
6:20 AM 8:04 PM
New Moon, 1% visible
Pressure 29.70 in
Visibility 10.0 miles
Clouds Overcast 1400 ft
Windchill 41 °F
Dew Point 43 °F
Humidity 93%
Rainfall 0.14 in
Snow Depth Not available.
UV 1 out of 12
Pollen 2.50 out of 12
Air Quality Not available.
Flu Activity Local Activity
METAR KROS 191416Z AUTO 15008G15KT 10SM OVC014 07/06 A2970 RMK AO2 T00670055

More Conditions Fewer Conditions

Pressure 29.70 in
Visibility 10.0 miles
Clouds Overcast 1400 ft
Windchill 41 °F
Dew Point 43 °F
Humidity 93%
Rainfall 0.14 in
Snow Depth Not available.
UV 1 out of 12
Pollen 2.50 out of 12
Air Quality Not available.
Flu Activity Local Activity
METAR KROS 191416Z AUTO 15008G15KT 10SM OVC014 07/06 A2970 RMK AO2 T00670055

More Conditions Fewer Conditions

10-Day Weather Forecast

Almanac

Astronomy

Apr. 19, 2015 Rise Set
Actual Time
Civil Twilight
Nautical Twilight
Astronomical Twilight
Moon
Length of Visible Light
Length of Day
Tomorrow will be .
, % of the Moon is Illuminated

Today's Extremes

State Highs State Lows

Community

WunderPhotos

Upload Photos

1,814,812 photos uploaded!

WunderBlogs® & News

Nearby

Air Quality

  Air Quality AQ Index Pollutant
Not available.

Snow Depth

Station Depth Elevation

Earthquake Activity

City Distance Mag. Time & Date
Minimum magnitude displayed is 2.5.

Coastal Water Temperatures

Place Temperature

Stations

Nearby Weather Stations

Station Location Temp. Windchill Dew Point Humidity Wind Precip. Elev Updated Type